sensor_id;sensor_type;location;lat;lon;timestamp;temperature;humidity
20803;DHT22;10562;-33.856;151.182;2023-02-14T00:00:45;20.60;99.90
20803;DHT22;10562;-33.856;151.182;2023-02-14T00:03:16;20.50;99.90
20803;DHT22;10562;-33.856;151.182;2023-02-14T00:05:47;20.70;99.90
20803;DHT22;10562;-33.856;151.182;2023-02-14T00:08:20;20.90;99.90
20803;DHT22;10562;-33.856;151.182;2023-02-14T00:10:50;21.00;99.90
20803;DHT22;10562;-33.856;151.182;2023-02-14T00:13:21;21.10;99.90
20803;DHT22;10562;-33.856;151.182;2023-02-14T00:15:52;21.20;99.90
20803;DHT22;10562;-33.856;151.182;2023-02-14T00:18:22;21.20;99.90
20803;DHT22;10562;-33.856;151.182;2023-02-14T00:21:14;21.30;99.90
20803;DHT22;10562;-33.856;151.182;2023-02-14T00:23:48;21.40;99.90
20803;DHT22;10562;-33.856;151.182;2023-02-14T00:26:18;21.40;99.90
20803;DHT22;10562;-33.856;151.182;2023-02-14T00:28:49;21.50;99.90
20803;DHT22;10562;-33.856;151.182;2023-02-14T00:31:20;21.60;99.90
20803;DHT22;10562;-33.856;151.182;2023-02-14T00:33:51;21.80;99.90
20803;DHT22;10562;-33.856;151.182;2023-02-14T00:36:22;21.90;99.90
20803;DHT22;10562;-33.856;151.182;2023-02-14T00:38:54;22.00;99.90
20803;DHT22;10562;-33.856;151.182;2023-02-14T00:41:25;21.80;99.90
20803;DHT22;10562;-33.856;151.182;2023-02-14T00:43:56;21.70;99.90
20803;DHT22;10562;-33.856;151.182;2023-02-14T00:46:27;21.50;99.90
20803;DHT22;10562;-33.856;151.182;2023-02-14T00:48:58;21.50;99.90
20803;DHT22;10562;-33.856;151.182;2023-02-14T00:51:28;21.50;99.90
20803;DHT22;10562;-33.856;151.182;2023-02-14T00:54:01;21.60;99.90
20803;DHT22;10562;-33.856;151.182;2023-02-14T00:56:32;21.50;99.90
20803;DHT22;10562;-33.856;151.182;2023-02-14T00:59:03;21.60;99.90
20803;DHT22;10562;-33.856;151.182;2023-02-14T01:01:34;21.70;99.90
20803;DHT22;10562;-33.856;151.182;2023-02-14T01:04:05;21.70;99.90
20803;DHT22;10562;-33.856;151.182;2023-02-14T01:06:36;21.60;99.90
20803;DHT22;10562;-33.856;151.182;2023-02-14T01:09:09;21.50;99.90
20803;DHT22;10562;-33.856;151.182;2023-02-14T01:11:39;21.50;99.90
20803;DHT22;10562;-33.856;151.182;2023-02-14T01:14:11;21.60;99.90
20803;DHT22;10562;-33.856;151.182;2023-02-14T01:16:42;21.60;99.90
20803;DHT22;10562;-33.856;151.182;2023-02-14T01:19:12;21.50;99.90
20803;DHT22;10562;-33.856;151.182;2023-02-14T01:21:43;21.40;99.90
20803;DHT22;10562;-33.856;151.182;2023-02-14T01:24:16;21.30;99.90
20803;DHT22;10562;-33.856;151.182;2023-02-14T01:26:47;21.30;99.90
20803;DHT22;10562;-33.856;151.182;2023-02-14T01:29:18;21.30;99.90
20803;DHT22;10562;-33.856;151.182;2023-02-14T01:31:48;21.20;99.90
20803;DHT22;10562;-33.856;151.182;2023-02-14T01:34:19;21.10;99.90
20803;DHT22;10562;-33.856;151.182;2023-02-14T01:36:50;21.20;99.90
20803;DHT22;10562;-33.856;151.182;2023-02-14T01:39:22;21.00;99.90
20803;DHT22;10562;-33.856;151.182;2023-02-14T01:41:53;20.80;99.90
20803;DHT22;10562;-33.856;151.182;2023-02-14T01:44:55;20.80;99.90
20803;DHT22;10562;-33.856;151.182;2023-02-14T01:47:27;20.60;99.90
20803;DHT22;10562;-33.856;151.182;2023-02-14T01:50:00;20.40;99.90
20803;DHT22;10562;-33.856;151.182;2023-02-14T01:52:35;20.30;99.90
20803;DHT22;10562;-33.856;151.182;2023-02-14T01:55:11;20.10;99.90
20803;DHT22;10562;-33.856;151.182;2023-02-14T01:57:44;19.90;99.90
20803;DHT22;10562;-33.856;151.182;2023-02-14T02:00:17;19.90;99.90
20803;DHT22;10562;-33.856;151.182;2023-02-14T02:03:05;19.90;99.90
20803;DHT22;10562;-33.856;151.182;2023-02-14T02:05:37;19.80;99.90
20803;DHT22;10562;-33.856;151.182;2023-02-14T02:08:10;19.80;99.90
20803;DHT22;10562;-33.856;151.182;2023-02-14T02:10:42;20.00;99.90
20803;DHT22;10562;-33.856;151.182;2023-02-14T02:13:16;20.00;99.90
20803;DHT22;10562;-33.856;151.182;2023-02-14T02:15:57;20.10;99.90
20803;DHT22;10562;-33.856;151.182;2023-02-14T02:18:38;20.00;99.90
20803;DHT22;10562;-33.856;151.182;2023-02-14T02:24:30;20.10;99.90
20803;DHT22;10562;-33.856;151.182;2023-02-14T02:30:54;20.00;99.90
20803;DHT22;10562;-33.856;151.182;2023-02-14T02:37:14;20.10;99.90
20803;DHT22;10562;-33.856;151.182;2023-02-14T02:39:57;20.10;99.90
20803;DHT22;10562;-33.856;151.182;2023-02-14T02:42:37;19.90;99.90
20803;DHT22;10562;-33.856;151.182;2023-02-14T02:45:22;19.90;99.90
20803;DHT22;10562;-33.856;151.182;2023-02-14T02:47:58;19.80;99.90
20803;DHT22;10562;-33.856;151.182;2023-02-14T02:50:34;19.70;99.90
20803;DHT22;10562;-33.856;151.182;2023-02-14T02:53:30;19.70;99.90
20803;DHT22;10562;-33.856;151.182;2023-02-14T02:56:05;19.60;99.90
20803;DHT22;10562;-33.856;151.182;2023-02-14T02:58:57;19.70;99.90
20803;DHT22;10562;-33.856;151.182;2023-02-14T03:01:31;19.80;99.90
20803;DHT22;10562;-33.856;151.182;2023-02-14T03:04:04;19.90;99.90
20803;DHT22;10562;-33.856;151.182;2023-02-14T03:06:52;19.90;99.90
20803;DHT22;10562;-33.856;151.182;2023-02-14T03:09:52;20.00;99.90
20803;DHT22;10562;-33.856;151.182;2023-02-14T03:15:32;19.90;99.90
20803;DHT22;10562;-33.856;151.182;2023-02-14T03:18:08;19.90;99.90
20803;DHT22;10562;-33.856;151.182;2023-02-14T03:21:03;19.90;99.90
20803;DHT22;10562;-33.856;151.182;2023-02-14T03:23:39;19.90;99.90
20803;DHT22;10562;-33.856;151.182;2023-02-14T03:26:17;19.90;99.90
20803;DHT22;10562;-33.856;151.182;2023-02-14T03:28:56;19.90;99.90
20803;DHT22;10562;-33.856;151.182;2023-02-14T03:31:32;19.80;99.90
20803;DHT22;10562;-33.856;151.182;2023-02-14T03:34:09;19.40;99.90
20803;DHT22;10562;-33.856;151.182;2023-02-14T03:36:45;19.10;99.90
20803;DHT22;10562;-33.856;151.182;2023-02-14T03:39:20;19.00;99.90
20803;DHT22;10562;-33.856;151.182;2023-02-14T03:41:58;19.10;99.90
20803;DHT22;10562;-33.856;151.182;2023-02-14T03:44:32;19.10;99.90
20803;DHT22;10562;-33.856;151.182;2023-02-14T03:47:06;19.10;99.90
20803;DHT22;10562;-33.856;151.182;2023-02-14T03:49:42;19.00;99.90
20803;DHT22;10562;-33.856;151.182;2023-02-14T03:52:14;18.80;99.90
20803;DHT22;10562;-33.856;151.182;2023-02-14T03:54:46;18.70;99.90
20803;DHT22;10562;-33.856;151.182;2023-02-14T03:57:22;18.80;99.90
20803;DHT22;10562;-33.856;151.182;2023-02-14T03:59:55;18.90;99.90
20803;DHT22;10562;-33.856;151.182;2023-02-14T04:02:32;18.90;99.90
20803;DHT22;10562;-33.856;151.182;2023-02-14T04:05:07;18.80;99.90
20803;DHT22;10562;-33.856;151.182;2023-02-14T04:07:48;18.80;99.90
20803;DHT22;10562;-33.856;151.182;2023-02-14T04:10:20;18.90;99.90
20803;DHT22;10562;-33.856;151.182;2023-02-14T04:12:53;18.90;99.90
20803;DHT22;10562;-33.856;151.182;2023-02-14T04:15:25;19.00;99.90
20803;DHT22;10562;-33.856;151.182;2023-02-14T04:17:56;19.10;99.90
20803;DHT22;10562;-33.856;151.182;2023-02-14T04:20:43;19.10;99.90
20803;DHT22;10562;-33.856;151.182;2023-02-14T04:23:14;19.20;99.90
20803;DHT22;10562;-33.856;151.182;2023-02-14T04:25:45;19.20;99.90
20803;DHT22;10562;-33.856;151.182;2023-02-14T04:28:17;19.20;99.90
20803;DHT22;10562;-33.856;151.182;2023-02-14T04:30:48;19.20;99.90
20803;DHT22;10562;-33.856;151.182;2023-02-14T04:33:19;19.30;99.90
20803;DHT22;10562;-33.856;151.182;2023-02-14T04:35:49;19.40;99.90
20803;DHT22;10562;-33.856;151.182;2023-02-14T04:38:20;19.50;99.90
20803;DHT22;10562;-33.856;151.182;2023-02-14T04:40:51;19.60;99.90
20803;DHT22;10562;-33.856;151.182;2023-02-14T04:43:25;19.70;99.90
20803;DHT22;10562;-33.856;151.182;2023-02-14T04:45:56;19.70;99.90
20803;DHT22;10562;-33.856;151.182;2023-02-14T04:48:27;19.70;99.90
20803;DHT22;10562;-33.856;151.182;2023-02-14T04:50:58;19.70;99.90
20803;DHT22;10562;-33.856;151.182;2023-02-14T04:53:28;19.80;99.90
20803;DHT22;10562;-33.856;151.182;2023-02-14T04:55:59;19.80;99.90
20803;DHT22;10562;-33.856;151.182;2023-02-14T04:58:32;19.80;99.90
20803;DHT22;10562;-33.856;151.182;2023-02-14T05:01:03;19.90;99.90
20803;DHT22;10562;-33.856;151.182;2023-02-14T05:03:33;20.10;99.90
20803;DHT22;10562;-33.856;151.182;2023-02-14T05:06:04;20.10;99.90
20803;DHT22;10562;-33.856;151.182;2023-02-14T05:08:35;20.20;99.90
20803;DHT22;10562;-33.856;151.182;2023-02-14T05:11:06;20.20;99.90
20803;DHT22;10562;-33.856;151.182;2023-02-14T05:13:38;20.20;99.90
20803;DHT22;10562;-33.856;151.182;2023-02-14T05:16:09;20.20;99.90
20803;DHT22;10562;-33.856;151.182;2023-02-14T05:18:40;20.30;99.90
20803;DHT22;10562;-33.856;151.182;2023-02-14T05:21:11;20.30;99.90
20803;DHT22;10562;-33.856;151.182;2023-02-14T05:23:41;20.30;99.90
20803;DHT22;10562;-33.856;151.182;2023-02-14T05:26:12;20.30;99.90
20803;DHT22;10562;-33.856;151.182;2023-02-14T05:28:45;20.40;99.90
20803;DHT22;10562;-33.856;151.182;2023-02-14T05:31:16;20.50;99.90
20803;DHT22;10562;-33.856;151.182;2023-02-14T05:33:46;21.10;99.90
20803;DHT22;10562;-33.856;151.182;2023-02-14T05:36:17;21.20;99.90
20803;DHT22;10562;-33.856;151.182;2023-02-14T05:38:48;21.10;99.90
20803;DHT22;10562;-33.856;151.182;2023-02-14T05:41:19;21.10;99.90
20803;DHT22;10562;-33.856;151.182;2023-02-14T05:43:51;21.10;99.90
20803;DHT22;10562;-33.856;151.182;2023-02-14T05:46:25;21.10;99.90
20803;DHT22;10562;-33.856;151.182;2023-02-14T05:48:56;21.00;99.90
20803;DHT22;10562;-33.856;151.182;2023-02-14T05:51:27;20.90;99.90
20803;DHT22;10562;-33.856;151.182;2023-02-14T05:53:58;21.00;99.90
20803;DHT22;10562;-33.856;151.182;2023-02-14T05:56:28;21.00;99.90
20803;DHT22;10562;-33.856;151.182;2023-02-14T05:59:01;21.20;99.90
20803;DHT22;10562;-33.856;151.182;2023-02-14T06:01:32;21.30;99.90
20803;DHT22;10562;-33.856;151.182;2023-02-14T06:04:02;21.40;99.90
20803;DHT22;10562;-33.856;151.182;2023-02-14T06:06:33;21.40;99.90
20803;DHT22;10562;-33.856;151.182;2023-02-14T06:09:04;21.60;99.90
20803;DHT22;10562;-33.856;151.182;2023-02-14T06:11:35;21.70;99.90
20803;DHT22;10562;-33.856;151.182;2023-02-14T06:14:07;21.80;99.90
20803;DHT22;10562;-33.856;151.182;2023-02-14T06:16:38;21.80;99.90
20803;DHT22;10562;-33.856;151.182;2023-02-14T06:19:09;21.80;99.90
20803;DHT22;10562;-33.856;151.182;2023-02-14T06:21:39;21.70;99.90
20803;DHT22;10562;-33.856;151.182;2023-02-14T06:24:10;21.50;99.90
20803;DHT22;10562;-33.856;151.182;2023-02-14T06:26:41;21.40;99.90
20803;DHT22;10562;-33.856;151.182;2023-02-14T06:29:16;21.40;99.90
20803;DHT22;10562;-33.856;151.182;2023-02-14T06:31:47;21.30;99.90
20803;DHT22;10562;-33.856;151.182;2023-02-14T06:34:17;21.20;99.90
20803;DHT22;10562;-33.856;151.182;2023-02-14T06:36:48;21.30;99.90
20803;DHT22;10562;-33.856;151.182;2023-02-14T06:39:19;21.20;99.90
20803;DHT22;10562;-33.856;151.182;2023-02-14T06:41:50;21.30;99.90
20803;DHT22;10562;-33.856;151.182;2023-02-14T06:44:25;21.40;99.90
20803;DHT22;10562;-33.856;151.182;2023-02-14T06:46:56;21.50;99.90
20803;DHT22;10562;-33.856;151.182;2023-02-14T06:49:27;21.50;99.90
20803;DHT22;10562;-33.856;151.182;2023-02-14T06:51:58;21.50;99.90
20803;DHT22;10562;-33.856;151.182;2023-02-14T06:54:29;21.70;99.90
20803;DHT22;10562;-33.856;151.182;2023-02-14T06:56:59;21.70;99.90
20803;DHT22;10562;-33.856;151.182;2023-02-14T06:59:32;21.70;99.90
20803;DHT22;10562;-33.856;151.182;2023-02-14T07:02:03;21.60;99.90
20803;DHT22;10562;-33.856;151.182;2023-02-14T07:04:33;21.50;99.90
20803;DHT22;10562;-33.856;151.182;2023-02-14T07:07:04;21.40;99.90
20803;DHT22;10562;-33.856;151.182;2023-02-14T07:09:35;21.40;99.90
20803;DHT22;10562;-33.856;151.182;2023-02-14T07:12:06;21.30;99.90
20803;DHT22;10562;-33.856;151.182;2023-02-14T07:14:39;21.30;99.90
20803;DHT22;10562;-33.856;151.182;2023-02-14T07:17:09;21.30;99.90
20803;DHT22;10562;-33.856;151.182;2023-02-14T07:19:40;21.30;99.90
20803;DHT22;10562;-33.856;151.182;2023-02-14T07:22:11;21.30;99.90
20803;DHT22;10562;-33.856;151.182;2023-02-14T07:24:42;21.30;99.90
20803;DHT22;10562;-33.856;151.182;2023-02-14T07:27:12;21.30;99.90
20803;DHT22;10562;-33.856;151.182;2023-02-14T07:29:45;21.30;99.90
20803;DHT22;10562;-33.856;151.182;2023-02-14T07:32:16;21.30;99.90
20803;DHT22;10562;-33.856;151.182;2023-02-14T07:34:46;21.20;99.90
20803;DHT22;10562;-33.856;151.182;2023-02-14T07:37:17;21.10;99.90
20803;DHT22;10562;-33.856;151.182;2023-02-14T07:39:48;21.10;99.90
20803;DHT22;10562;-33.856;151.182;2023-02-14T07:42:19;21.10;99.90
20803;DHT22;10562;-33.856;151.182;2023-02-14T07:44:52;21.10;99.90
20803;DHT22;10562;-33.856;151.182;2023-02-14T07:47:23;21.10;99.90
20803;DHT22;10562;-33.856;151.182;2023-02-14T07:49:54;21.20;99.90
20803;DHT22;10562;-33.856;151.182;2023-02-14T07:52:26;21.20;99.90
20803;DHT22;10562;-33.856;151.182;2023-02-14T07:54:56;21.20;99.90
20803;DHT22;10562;-33.856;151.182;2023-02-14T07:57:27;21.20;99.90
20803;DHT22;10562;-33.856;151.182;2023-02-14T08:00:00;21.20;99.90
20803;DHT22;10562;-33.856;151.182;2023-02-14T08:02:31;21.20;99.90
20803;DHT22;10562;-33.856;151.182;2023-02-14T08:05:02;21.20;99.90
20803;DHT22;10562;-33.856;151.182;2023-02-14T08:07:33;21.20;99.90
20803;DHT22;10562;-33.856;151.182;2023-02-14T08:10:07;21.20;99.90
20803;DHT22;10562;-33.856;151.182;2023-02-14T08:12:38;21.10;99.90
20803;DHT22;10562;-33.856;151.182;2023-02-14T08:15:27;21.00;99.90
20803;DHT22;10562;-33.856;151.182;2023-02-14T08:18:14;21.00;99.90
20803;DHT22;10562;-33.856;151.182;2023-02-14T08:20:45;20.90;99.90
20803;DHT22;10562;-33.856;151.182;2023-02-14T08:23:16;20.80;99.90
20803;DHT22;10562;-33.856;151.182;2023-02-14T08:25:48;20.80;99.90
20803;DHT22;10562;-33.856;151.182;2023-02-14T08:28:19;20.80;99.90
20803;DHT22;10562;-33.856;151.182;2023-02-14T08:30:52;20.80;99.90
20803;DHT22;10562;-33.856;151.182;2023-02-14T08:33:23;20.70;99.90
20803;DHT22;10562;-33.856;151.182;2023-02-14T08:35:54;20.60;99.90
20803;DHT22;10562;-33.856;151.182;2023-02-14T08:38:24;20.50;99.90
20803;DHT22;10562;-33.856;151.182;2023-02-14T08:40:59;20.40;99.90
20803;DHT22;10562;-33.856;151.182;2023-02-14T08:43:33;20.40;99.90
20803;DHT22;10562;-33.856;151.182;2023-02-14T08:46:05;20.30;99.90
20803;DHT22;10562;-33.856;151.182;2023-02-14T08:48:39;20.30;99.90
20803;DHT22;10562;-33.856;151.182;2023-02-14T08:51:13;20.20;99.90
20803;DHT22;10562;-33.856;151.182;2023-02-14T08:53:44;20.20;99.90
20803;DHT22;10562;-33.856;151.182;2023-02-14T08:56:15;20.10;99.90
20803;DHT22;10562;-33.856;151.182;2023-02-14T08:58:50;20.10;99.90
20803;DHT22;10562;-33.856;151.182;2023-02-14T09:01:23;20.10;99.90
20803;DHT22;10562;-33.856;151.182;2023-02-14T09:03:55;20.10;99.90
20803;DHT22;10562;-33.856;151.182;2023-02-14T09:06:26;20.00;99.90
20803;DHT22;10562;-33.856;151.182;2023-02-14T09:08:58;20.00;99.90
20803;DHT22;10562;-33.856;151.182;2023-02-14T09:11:29;20.00;99.90
20803;DHT22;10562;-33.856;151.182;2023-02-14T09:14:00;20.00;99.90
20803;DHT22;10562;-33.856;151.182;2023-02-14T09:16:32;20.00;99.90
20803;DHT22;10562;-33.856;151.182;2023-02-14T09:19:03;20.00;99.90
20803;DHT22;10562;-33.856;151.182;2023-02-14T09:21:34;20.00;99.90
20803;DHT22;10562;-33.856;151.182;2023-02-14T09:24:05;20.00;99.90
20803;DHT22;10562;-33.856;151.182;2023-02-14T09:26:35;20.00;99.90
20803;DHT22;10562;-33.856;151.182;2023-02-14T09:29:08;19.90;99.90
20803;DHT22;10562;-33.856;151.182;2023-02-14T09:31:42;20.00;99.90
20803;DHT22;10562;-33.856;151.182;2023-02-14T09:34:12;20.00;99.90
20803;DHT22;10562;-33.856;151.182;2023-02-14T09:36:43;19.90;99.90
20803;DHT22;10562;-33.856;151.182;2023-02-14T09:39:30;19.90;99.90
20803;DHT22;10562;-33.856;151.182;2023-02-14T09:42:22;20.00;99.90
20803;DHT22;10562;-33.856;151.182;2023-02-14T09:44:58;19.90;99.90
20803;DHT22;10562;-33.856;151.182;2023-02-14T09:47:38;19.90;99.90
20803;DHT22;10562;-33.856;151.182;2023-02-14T09:50:16;20.00;99.90
20803;DHT22;10562;-33.856;151.182;2023-02-14T09:52:49;20.00;99.90
20803;DHT22;10562;-33.856;151.182;2023-02-14T09:55:20;20.00;99.90
20803;DHT22;10562;-33.856;151.182;2023-02-14T09:58:08;20.00;99.90
20803;DHT22;10562;-33.856;151.182;2023-02-14T10:00:44;20.00;99.90
20803;DHT22;10562;-33.856;151.182;2023-02-14T10:06:39;19.90;99.90
20803;DHT22;10562;-33.856;151.182;2023-02-14T10:09:25;20.00;99.90
20803;DHT22;10562;-33.856;151.182;2023-02-14T10:12:01;20.00;99.90
20803;DHT22;10562;-33.856;151.182;2023-02-14T10:14:34;20.00;99.90
20803;DHT22;10562;-33.856;151.182;2023-02-14T10:17:14;19.90;99.90
20803;DHT22;10562;-33.856;151.182;2023-02-14T10:19:53;19.90;99.90
20803;DHT22;10562;-33.856;151.182;2023-02-14T10:22:30;20.00;99.90
20803;DHT22;10562;-33.856;151.182;2023-02-14T10:25:14;19.90;99.90
20803;DHT22;10562;-33.856;151.182;2023-02-14T10:27:48;19.90;99.90
20803;DHT22;10562;-33.856;151.182;2023-02-14T10:30:21;19.90;99.90
20803;DHT22;10562;-33.856;151.182;2023-02-14T10:32:58;19.90;99.90
20803;DHT22;10562;-33.856;151.182;2023-02-14T10:35:39;19.80;99.90
20803;DHT22;10562;-33.856;151.182;2023-02-14T10:38:20;19.70;99.90
20803;DHT22;10562;-33.856;151.182;2023-02-14T10:41:20;19.70;99.90
20803;DHT22;10562;-33.856;151.182;2023-02-14T10:43:59;19.60;99.90
20803;DHT22;10562;-33.856;151.182;2023-02-14T10:46:37;19.60;99.90
20803;DHT22;10562;-33.856;151.182;2023-02-14T10:49:30;19.60;99.90
20803;DHT22;10562;-33.856;151.182;2023-02-14T10:52:17;19.60;99.90
20803;DHT22;10562;-33.856;151.182;2023-02-14T10:54:54;19.60;99.90
20803;DHT22;10562;-33.856;151.182;2023-02-14T10:57:28;19.60;99.90
20803;DHT22;10562;-33.856;151.182;2023-02-14T11:00:03;19.60;99.90
20803;DHT22;10562;-33.856;151.182;2023-02-14T11:02:37;19.70;99.90
20803;DHT22;10562;-33.856;151.182;2023-02-14T11:05:18;19.70;99.90
20803;DHT22;10562;-33.856;151.182;2023-02-14T11:07:54;19.80;99.90
20803;DHT22;10562;-33.856;151.182;2023-02-14T11:10:28;19.80;99.90
20803;DHT22;10562;-33.856;151.182;2023-02-14T11:13:00;19.80;99.90
20803;DHT22;10562;-33.856;151.182;2023-02-14T11:15:32;19.80;99.90
20803;DHT22;10562;-33.856;151.182;2023-02-14T11:18:19;19.80;99.90
20803;DHT22;10562;-33.856;151.182;2023-02-14T11:21:01;19.80;99.90
20803;DHT22;10562;-33.856;151.182;2023-02-14T11:23:39;19.90;99.90
20803;DHT22;10562;-33.856;151.182;2023-02-14T11:26:20;19.90;99.90
20803;DHT22;10562;-33.856;151.182;2023-02-14T11:28:54;19.90;99.90
20803;DHT22;10562;-33.856;151.182;2023-02-14T11:31:30;19.90;99.90
20803;DHT22;10562;-33.856;151.182;2023-02-14T11:34:03;19.90;99.90
20803;DHT22;10562;-33.856;151.182;2023-02-14T11:36:40;19.90;99.90
20803;DHT22;10562;-33.856;151.182;2023-02-14T11:39:26;19.90;99.90
20803;DHT22;10562;-33.856;151.182;2023-02-14T11:41:59;19.90;99.90
20803;DHT22;10562;-33.856;151.182;2023-02-14T11:44:32;19.90;99.90
20803;DHT22;10562;-33.856;151.182;2023-02-14T11:47:18;19.90;99.90
20803;DHT22;10562;-33.856;151.182;2023-02-14T11:49:56;19.90;99.90
20803;DHT22;10562;-33.856;151.182;2023-02-14T11:52:28;19.90;99.90
20803;DHT22;10562;-33.856;151.182;2023-02-14T11:55:01;19.80;99.90
20803;DHT22;10562;-33.856;151.182;2023-02-14T11:57:34;19.80;99.90
20803;DHT22;10562;-33.856;151.182;2023-02-14T12:00:15;19.80;99.90
20803;DHT22;10562;-33.856;151.182;2023-02-14T12:02:47;19.80;99.90
20803;DHT22;10562;-33.856;151.182;2023-02-14T12:05:25;19.80;99.90
20803;DHT22;10562;-33.856;151.182;2023-02-14T12:07:57;19.70;99.90
20803;DHT22;10562;-33.856;151.182;2023-02-14T12:10:32;19.60;99.90
20803;DHT22;10562;-33.856;151.182;2023-02-14T12:13:19;19.60;99.90
20803;DHT22;10562;-33.856;151.182;2023-02-14T12:15:53;19.60;99.90
20803;DHT22;10562;-33.856;151.182;2023-02-14T12:21:40;19.40;99.90
20803;DHT22;10562;-33.856;151.182;2023-02-14T12:24:21;19.40;99.90
20803;DHT22;10562;-33.856;151.182;2023-02-14T12:27:01;19.30;99.90
20803;DHT22;10562;-33.856;151.182;2023-02-14T12:29:36;19.20;99.90
20803;DHT22;10562;-33.856;151.182;2023-02-14T12:32:15;19.20;99.90
20803;DHT22;10562;-33.856;151.182;2023-02-14T12:34:47;19.20;99.90
20803;DHT22;10562;-33.856;151.182;2023-02-14T12:37:25;19.10;99.90
20803;DHT22;10562;-33.856;151.182;2023-02-14T12:40:17;19.10;99.90
20803;DHT22;10562;-33.856;151.182;2023-02-14T12:43:09;19.00;99.90
20803;DHT22;10562;-33.856;151.182;2023-02-14T12:45:58;19.00;99.90
20803;DHT22;10562;-33.856;151.182;2023-02-14T12:48:43;18.90;99.90
20803;DHT22;10562;-33.856;151.182;2023-02-14T12:51:21;18.80;99.90
20803;DHT22;10562;-33.856;151.182;2023-02-14T12:54:06;18.80;99.90
20803;DHT22;10562;-33.856;151.182;2023-02-14T12:56:49;18.70;99.90
20803;DHT22;10562;-33.856;151.182;2023-02-14T12:59:35;18.60;99.90
20803;DHT22;10562;-33.856;151.182;2023-02-14T13:02:39;18.60;99.90
20803;DHT22;10562;-33.856;151.182;2023-02-14T13:05:21;18.60;99.90
20803;DHT22;10562;-33.856;151.182;2023-02-14T13:08:09;18.50;99.90
20803;DHT22;10562;-33.856;151.182;2023-02-14T13:10:52;18.50;99.90
20803;DHT22;10562;-33.856;151.182;2023-02-14T13:13:32;18.50;99.90
20803;DHT22;10562;-33.856;151.182;2023-02-14T13:16:18;18.50;99.90
20803;DHT22;10562;-33.856;151.182;2023-02-14T13:18:58;18.50;99.90
20803;DHT22;10562;-33.856;151.182;2023-02-14T13:21:32;18.50;99.90
20803;DHT22;10562;-33.856;151.182;2023-02-14T13:24:13;18.50;99.90
20803;DHT22;10562;-33.856;151.182;2023-02-14T13:26:49;18.60;99.90
20803;DHT22;10562;-33.856;151.182;2023-02-14T13:29:24;18.60;99.90
20803;DHT22;10562;-33.856;151.182;2023-02-14T13:32:02;18.60;99.90
20803;DHT22;10562;-33.856;151.182;2023-02-14T13:34:35;18.60;99.90
20803;DHT22;10562;-33.856;151.182;2023-02-14T13:37:10;18.70;99.90
20803;DHT22;10562;-33.856;151.182;2023-02-14T13:39:44;18.60;99.90
20803;DHT22;10562;-33.856;151.182;2023-02-14T13:42:54;18.70;99.90
20803;DHT22;10562;-33.856;151.182;2023-02-14T13:48:35;18.60;99.90
20803;DHT22;10562;-33.856;151.182;2023-02-14T13:51:08;18.50;99.90
20803;DHT22;10562;-33.856;151.182;2023-02-14T13:53:40;18.50;99.90
20803;DHT22;10562;-33.856;151.182;2023-02-14T13:56:40;18.50;99.90
20803;DHT22;10562;-33.856;151.182;2023-02-14T13:59:25;18.50;99.90
20803;DHT22;10562;-33.856;151.182;2023-02-14T14:05:47;18.40;99.90
20803;DHT22;10562;-33.856;151.182;2023-02-14T14:08:36;18.30;99.90
20803;DHT22;10562;-33.856;151.182;2023-02-14T14:11:12;18.30;99.90
20803;DHT22;10562;-33.856;151.182;2023-02-14T14:13:57;18.40;99.90
20803;DHT22;10562;-33.856;151.182;2023-02-14T14:16:30;18.40;99.90
20803;DHT22;10562;-33.856;151.182;2023-02-14T14:19:08;18.40;99.90
20803;DHT22;10562;-33.856;151.182;2023-02-14T14:22:03;18.40;99.90
20803;DHT22;10562;-33.856;151.182;2023-02-14T14:24:36;18.40;99.90
20803;DHT22;10562;-33.856;151.182;2023-02-14T14:27:14;18.40;99.90
20803;DHT22;10562;-33.856;151.182;2023-02-14T14:29:46;18.40;99.90
20803;DHT22;10562;-33.856;151.182;2023-02-14T14:32:24;18.30;99.90
20803;DHT22;10562;-33.856;151.182;2023-02-14T14:34:56;18.40;99.90
20803;DHT22;10562;-33.856;151.182;2023-02-14T14:37:30;18.40;99.90
20803;DHT22;10562;-33.856;151.182;2023-02-14T14:40:03;18.50;99.90
20803;DHT22;10562;-33.856;151.182;2023-02-14T14:42:36;18.60;99.90
20803;DHT22;10562;-33.856;151.182;2023-02-14T14:45:20;18.60;99.90
20803;DHT22;10562;-33.856;151.182;2023-02-14T14:47:54;18.70;99.90
20803;DHT22;10562;-33.856;151.182;2023-02-14T14:50:27;18.60;99.90
20803;DHT22;10562;-33.856;151.182;2023-02-14T14:53:01;18.70;99.90
20803;DHT22;10562;-33.856;151.182;2023-02-14T14:55:34;18.60;99.90
20803;DHT22;10562;-33.856;151.182;2023-02-14T14:58:06;18.60;99.90
20803;DHT22;10562;-33.856;151.182;2023-02-14T15:00:44;18.60;99.90
20803;DHT22;10562;-33.856;151.182;2023-02-14T15:03:23;18.60;99.90
20803;DHT22;10562;-33.856;151.182;2023-02-14T15:06:06;18.60;99.90
20803;DHT22;10562;-33.856;151.182;2023-02-14T15:08:42;18.60;99.90
20803;DHT22;10562;-33.856;151.182;2023-02-14T15:11:15;18.50;99.90
20803;DHT22;10562;-33.856;151.182;2023-02-14T15:14:14;18.50;99.90
20803;DHT22;10562;-33.856;151.182;2023-02-14T15:16:47;18.60;99.90
20803;DHT22;10562;-33.856;151.182;2023-02-14T15:19:21;18.60;99.90
20803;DHT22;10562;-33.856;151.182;2023-02-14T15:21:53;18.50;99.90
20803;DHT22;10562;-33.856;151.182;2023-02-14T15:24:26;18.50;99.90
20803;DHT22;10562;-33.856;151.182;2023-02-14T15:26:57;18.50;99.90
20803;DHT22;10562;-33.856;151.182;2023-02-14T15:29:29;18.60;99.90
20803;DHT22;10562;-33.856;151.182;2023-02-14T15:32:01;18.80;99.90
20803;DHT22;10562;-33.856;151.182;2023-02-14T15:34:34;18.90;99.90
20803;DHT22;10562;-33.856;151.182;2023-02-14T15:37:05;18.80;99.90
20803;DHT22;10562;-33.856;151.182;2023-02-14T15:39:42;18.70;99.90
20803;DHT22;10562;-33.856;151.182;2023-02-14T15:42:23;18.60;99.90
20803;DHT22;10562;-33.856;151.182;2023-02-14T15:45:16;18.60;99.90
20803;DHT22;10562;-33.856;151.182;2023-02-14T15:47:49;18.60;99.90
20803;DHT22;10562;-33.856;151.182;2023-02-14T15:50:22;18.70;99.90
20803;DHT22;10562;-33.856;151.182;2023-02-14T15:52:55;18.80;99.90
20803;DHT22;10562;-33.856;151.182;2023-02-14T15:55:31;18.80;99.90
20803;DHT22;10562;-33.856;151.182;2023-02-14T15:58:04;18.80;99.90
20803;DHT22;10562;-33.856;151.182;2023-02-14T16:00:36;18.70;99.90
20803;DHT22;10562;-33.856;151.182;2023-02-14T16:03:08;18.70;99.90